sensor_id;sensor_type;location;lat;lon;timestamp;pressure;altitude;pressure_sealevel;temperature;humidity
50430;BME280;36359;41.556;-8.418;2023-02-17T11:25:25;101368.03;;;17.06;40.09
50430;BME280;36359;41.556;-8.418;2023-02-17T11:27:56;101328.03;;;16.87;39.78
50430;BME280;36359;41.556;-8.418;2023-02-17T11:30:24;101345.75;;;17.09;40.03
50430;BME280;36359;41.556;-8.418;2023-02-17T11:32:50;101352.59;;;17.13;39.89
50430;BME280;36359;41.556;-8.418;2023-02-17T11:38:27;101366.91;;;17.58;38.57
50430;BME280;36359;41.556;-8.418;2023-02-17T11:43:21;101296.25;;;17.52;37.67
50430;BME280;36359;41.556;-8.418;2023-02-17T11:49:24;101338.09;;;18.03;37.19
50430;BME280;36359;41.556;-8.418;2023-02-17T11:51:50;101344.41;;;18.11;36.56
50430;BME280;36359;41.556;-8.418;2023-02-17T11:59:38;101281.34;;;18.34;35.16
50430;BME280;36359;41.556;-8.418;2023-02-17T12:13:21;101306.25;;;18.72;35.44
50430;BME280;36359;41.556;-8.418;2023-02-17T12:33:26;101261.47;;;19.41;33.78
50430;BME280;36359;41.556;-8.418;2023-02-17T12:36:01;101247.44;;;19.36;32.56
50430;BME280;36359;41.556;-8.418;2023-02-17T12:38:33;101261.81;;;19.61;32.46
50430;BME280;36359;41.556;-8.418;2023-02-17T12:41:22;101256.94;;;19.48;32.58
50430;BME280;36359;41.556;-8.418;2023-02-17T12:44:09;101219.56;;;19.16;31.94
50430;BME280;36359;41.556;-8.418;2023-02-17T12:46:40;101198.28;;;19.33;31.99
50430;BME280;36359;41.556;-8.418;2023-02-17T12:49:19;101237.28;;;19.36;32.11
50430;BME280;36359;41.556;-8.418;2023-02-17T12:51:58;101225.91;;;19.39;31.85
50430;BME280;36359;41.556;-8.418;2023-02-17T12:54:36;101205.91;;;19.60;31.22
50430;BME280;36359;41.556;-8.418;2023-02-17T12:59:44;101194.38;;;20.09;31.44
50430;BME280;36359;41.556;-8.418;2023-02-17T13:02:16;101185.97;;;20.17;29.99
50430;BME280;36359;41.556;-8.418;2023-02-17T13:04:46;101157.69;;;19.64;30.35
50430;BME280;36359;41.556;-8.418;2023-02-17T13:09:54;101169.59;;;19.94;30.46
50430;BME280;36359;41.556;-8.418;2023-02-17T13:14:55;101158.38;;;19.81;30.85
50430;BME280;36359;41.556;-8.418;2023-02-17T13:17:31;101196.16;;;20.02;31.00
50430;BME280;36359;41.556;-8.418;2023-02-17T13:22:41;101178.47;;;20.11;31.63
50430;BME280;36359;41.556;-8.418;2023-02-17T13:28:29;101154.16;;;20.30;30.85
50430;BME280;36359;41.556;-8.418;2023-02-17T13:31:09;101170.44;;;20.46;30.67
50430;BME280;36359;41.556;-8.418;2023-02-17T13:33:42;101127.88;;;20.12;31.24
50430;BME280;36359;41.556;-8.418;2023-02-17T13:36:36;101161.31;;;20.46;29.32
50430;BME280;36359;41.556;-8.418;2023-02-17T13:41:46;101137.22;;;20.33;29.73
50430;BME280;36359;41.556;-8.418;2023-02-17T13:44:38;101162.44;;;20.51;27.95
50430;BME280;36359;41.556;-8.418;2023-02-17T13:47:05;101150.22;;;20.39;27.72
50430;BME280;36359;41.556;-8.418;2023-02-17T13:49:36;101138.03;;;20.48;27.47
50430;BME280;36359;41.556;-8.418;2023-02-17T13:52:24;101099.16;;;20.43;27.64
50430;BME280;36359;41.556;-8.418;2023-02-17T13:57:27;101117.66;;;20.64;26.36
50430;BME280;36359;41.556;-8.418;2023-02-17T14:03:09;101087.22;;;20.36;28.96
50430;BME280;36359;41.556;-8.418;2023-02-17T14:05:43;101113.38;;;20.61;29.28
50430;BME280;36359;41.556;-8.418;2023-02-17T14:08:17;101070.16;;;20.26;25.65
50430;BME280;36359;41.556;-8.418;2023-02-17T14:10:43;101068.84;;;20.43;26.01
50430;BME280;36359;41.556;-8.418;2023-02-17T14:13:10;101082.34;;;20.38;27.16
50430;BME280;36359;41.556;-8.418;2023-02-17T14:15:37;101050.06;;;20.32;26.00
50430;BME280;36359;41.556;-8.418;2023-02-17T14:18:13;101076.31;;;20.49;33.48
50430;BME280;36359;41.556;-8.418;2023-02-17T14:20:39;101081.50;;;20.74;26.17
50430;BME280;36359;41.556;-8.418;2023-02-17T14:23:10;101066.09;;;20.64;26.53
50430;BME280;36359;41.556;-8.418;2023-02-17T14:25:43;101092.38;;;20.60;26.79
50430;BME280;36359;41.556;-8.418;2023-02-17T14:28:25;101058.75;;;20.50;29.63
50430;BME280;36359;41.556;-8.418;2023-02-17T14:30:52;101091.81;;;20.65;27.46
50430;BME280;36359;41.556;-8.418;2023-02-17T14:33:23;101057.81;;;20.43;30.37
50430;BME280;36359;41.556;-8.418;2023-02-17T14:40:53;101052.59;;;20.70;25.45
50430;BME280;36359;41.556;-8.418;2023-02-17T14:43:22;101059.91;;;20.84;26.27
50430;BME280;36359;41.556;-8.418;2023-02-17T14:45:49;101079.13;;;20.71;29.07
50430;BME280;36359;41.556;-8.418;2023-02-17T14:48:15;101030.44;;;20.20;32.22
50430;BME280;36359;41.556;-8.418;2023-02-17T14:50:41;101027.16;;;19.88;30.67
50430;BME280;36359;41.556;-8.418;2023-02-17T14:53:28;101071.00;;;20.62;25.71
50430;BME280;36359;41.556;-8.418;2023-02-17T14:58:40;101070.78;;;20.64;26.74
50430;BME280;36359;41.556;-8.418;2023-02-17T15:01:05;101072.00;;;20.61;25.39
50430;BME280;36359;41.556;-8.418;2023-02-17T15:03:31;101067.44;;;20.32;29.37
50430;BME280;36359;41.556;-8.418;2023-02-17T15:05:59;101068.56;;;20.38;26.30
50430;BME280;36359;41.556;-8.418;2023-02-17T15:08:32;101052.50;;;20.20;26.67
50430;BME280;36359;41.556;-8.418;2023-02-17T15:10:58;101061.69;;;20.27;26.91
50430;BME280;36359;41.556;-8.418;2023-02-17T15:13:24;101061.25;;;20.45;26.01
50430;BME280;36359;41.556;-8.418;2023-02-17T15:15:51;101052.53;;;20.41;24.42
50430;BME280;36359;41.556;-8.418;2023-02-17T15:18:18;101059.50;;;20.44;25.12
50430;BME280;36359;41.556;-8.418;2023-02-17T15:20:46;101057.06;;;20.71;25.37
50430;BME280;36359;41.556;-8.418;2023-02-17T15:23:16;101049.81;;;20.70;25.11
50430;BME280;36359;41.556;-8.418;2023-02-17T15:25:43;101046.41;;;20.46;26.27
50430;BME280;36359;41.556;-8.418;2023-02-17T15:28:18;101044.16;;;20.35;27.64
50430;BME280;36359;41.556;-8.418;2023-02-17T15:30:52;101047.53;;;20.30;26.63
50430;BME280;36359;41.556;-8.418;2023-02-17T15:33:20;101043.94;;;20.30;29.60
50430;BME280;36359;41.556;-8.418;2023-02-17T15:35:50;101046.75;;;20.36;27.34
50430;BME280;36359;41.556;-8.418;2023-02-17T15:38:18;101047.06;;;20.48;27.45
50430;BME280;36359;41.556;-8.418;2023-02-17T15:40:44;101032.44;;;20.48;25.96
50430;BME280;36359;41.556;-8.418;2023-02-17T15:43:19;101040.84;;;20.18;27.42
50430;BME280;36359;41.556;-8.418;2023-02-17T15:45:45;101036.78;;;20.35;30.39
50430;BME280;36359;41.556;-8.418;2023-02-17T15:48:17;101034.06;;;20.20;28.35
50430;BME280;36359;41.556;-8.418;2023-02-17T15:50:46;101026.44;;;20.59;29.16
50430;BME280;36359;41.556;-8.418;2023-02-17T15:53:12;101026.34;;;20.09;32.12
50430;BME280;36359;41.556;-8.418;2023-02-17T15:55:38;101023.84;;;20.36;27.56
50430;BME280;36359;41.556;-8.418;2023-02-17T15:58:05;101029.47;;;20.49;26.26
50430;BME280;36359;41.556;-8.418;2023-02-17T16:00:34;101029.81;;;20.39;24.10
50430;BME280;36359;41.556;-8.418;2023-02-17T16:03:01;101036.69;;;20.07;28.41
50430;BME280;36359;41.556;-8.418;2023-02-17T16:05:28;101041.22;;;20.15;26.37
50430;BME280;36359;41.556;-8.418;2023-02-17T16:07:55;101032.81;;;20.02;27.03
50430;BME280;36359;41.556;-8.418;2023-02-17T16:10:23;101040.25;;;19.86;30.04
50430;BME280;36359;41.556;-8.418;2023-02-17T16:12:51;101043.88;;;20.08;26.14
50430;BME280;36359;41.556;-8.418;2023-02-17T16:15:21;101043.88;;;20.08;26.88
50430;BME280;36359;41.556;-8.418;2023-02-17T16:17:49;101048.56;;;20.08;26.39
50430;BME280;36359;41.556;-8.418;2023-02-17T16:20:26;101060.50;;;19.79;27.66
50430;BME280;36359;41.556;-8.418;2023-02-17T16:22:52;101055.47;;;19.67;28.55
50430;BME280;36359;41.556;-8.418;2023-02-17T16:25:20;101056.69;;;19.50;32.02
50430;BME280;36359;41.556;-8.418;2023-02-17T16:27:47;101060.88;;;19.46;28.33
50430;BME280;36359;41.556;-8.418;2023-02-17T16:30:29;101068.56;;;19.50;30.03
50430;BME280;36359;41.556;-8.418;2023-02-17T16:32:56;101067.22;;;19.61;28.79
50430;BME280;36359;41.556;-8.418;2023-02-17T16:35:24;101068.25;;;19.90;25.85
50430;BME280;36359;41.556;-8.418;2023-02-17T16:38:25;101069.56;;;19.94;24.62
50430;BME280;36359;41.556;-8.418;2023-02-17T16:40:47;101069.94;;;19.91;25.12
50430;BME280;36359;41.556;-8.418;2023-02-17T16:43:23;101062.94;;;19.73;26.28
50430;BME280;36359;41.556;-8.418;2023-02-17T16:45:55;101062.28;;;19.86;25.43
50430;BME280;36359;41.556;-8.418;2023-02-17T16:48:23;101053.56;;;19.83;28.48
50430;BME280;36359;41.556;-8.418;2023-02-17T16:50:50;101058.03;;;19.84;26.07
50430;BME280;36359;41.556;-8.418;2023-02-17T16:53:16;101064.00;;;19.72;27.94
50430;BME280;36359;41.556;-8.418;2023-02-17T16:55:42;101058.78;;;19.48;28.65
50430;BME280;36359;41.556;-8.418;2023-02-17T16:58:22;101061.34;;;19.49;28.76
50430;BME280;36359;41.556;-8.418;2023-02-17T17:00:50;101054.22;;;19.25;32.26
50430;BME280;36359;41.556;-8.418;2023-02-17T17:03:18;101069.88;;;19.25;29.77
50430;BME280;36359;41.556;-8.418;2023-02-17T17:05:44;101060.78;;;19.10;31.28
50430;BME280;36359;41.556;-8.418;2023-02-17T17:08:14;101055.63;;;18.92;31.32
50430;BME280;36359;41.556;-8.418;2023-02-17T17:10:42;101068.63;;;18.98;28.53
50430;BME280;36359;41.556;-8.418;2023-02-17T17:13:09;101069.94;;;19.02;29.61
50430;BME280;36359;41.556;-8.418;2023-02-17T17:15:36;101065.50;;;19.01;29.89
50430;BME280;36359;41.556;-8.418;2023-02-17T17:18:06;101076.72;;;18.76;34.00
50430;BME280;36359;41.556;-8.418;2023-02-17T17:20:35;101074.78;;;18.62;33.18
50430;BME280;36359;41.556;-8.418;2023-02-17T17:23:05;101065.56;;;18.70;37.57
50430;BME280;36359;41.556;-8.418;2023-02-17T17:25:34;101073.47;;;18.50;36.94
50430;BME280;36359;41.556;-8.418;2023-02-17T17:28:01;101068.91;;;18.42;32.46
50430;BME280;36359;41.556;-8.418;2023-02-17T17:30:29;101074.28;;;18.35;32.54
50430;BME280;36359;41.556;-8.418;2023-02-17T17:32:56;101073.59;;;18.33;34.20
50430;BME280;36359;41.556;-8.418;2023-02-17T17:35:22;101073.66;;;18.25;33.69
50430;BME280;36359;41.556;-8.418;2023-02-17T17:37:48;101076.44;;;18.17;38.54
50430;BME280;36359;41.556;-8.418;2023-02-17T17:40:20;101075.78;;;18.15;36.22
50430;BME280;36359;41.556;-8.418;2023-02-17T17:42:49;101073.41;;;18.12;33.86
50430;BME280;36359;41.556;-8.418;2023-02-17T17:45:14;101072.16;;;18.14;31.41
50430;BME280;36359;41.556;-8.418;2023-02-17T17:47:40;101074.09;;;18.06;33.47
50430;BME280;36359;41.556;-8.418;2023-02-17T17:50:15;101069.69;;;17.97;32.77
50430;BME280;36359;41.556;-8.418;2023-02-17T17:52:43;101075.91;;;17.90;35.56
50430;BME280;36359;41.556;-8.418;2023-02-17T17:57:38;101077.69;;;17.75;38.34
50430;BME280;36359;41.556;-8.418;2023-02-17T18:00:09;101067.22;;;17.70;40.14
50430;BME280;36359;41.556;-8.418;2023-02-17T18:02:40;101075.31;;;17.64;41.16
50430;BME280;36359;41.556;-8.418;2023-02-17T18:05:06;101068.50;;;17.60;42.37
50430;BME280;36359;41.556;-8.418;2023-02-17T18:07:32;101070.06;;;17.54;35.61
50430;BME280;36359;41.556;-8.418;2023-02-17T18:09:58;101057.91;;;17.48;35.92
50430;BME280;36359;41.556;-8.418;2023-02-17T18:12:26;101066.66;;;17.44;35.25
50430;BME280;36359;41.556;-8.418;2023-02-17T18:14:52;101066.84;;;17.42;34.43
50430;BME280;36359;41.556;-8.418;2023-02-17T18:17:20;101064.78;;;17.44;41.25
50430;BME280;36359;41.556;-8.418;2023-02-17T18:19:47;101070.97;;;17.38;38.75
50430;BME280;36359;41.556;-8.418;2023-02-17T18:22:14;101065.81;;;17.35;40.39
50430;BME280;36359;41.556;-8.418;2023-02-17T18:24:40;101069.44;;;17.36;36.34
50430;BME280;36359;41.556;-8.418;2023-02-17T18:27:06;101065.16;;;17.33;37.79
50430;BME280;36359;41.556;-8.418;2023-02-17T18:29:31;101053.50;;;17.31;37.06
50430;BME280;36359;41.556;-8.418;2023-02-17T18:31:57;101045.59;;;17.36;38.18
50430;BME280;36359;41.556;-8.418;2023-02-17T18:34:24;101047.81;;;17.41;36.18
50430;BME280;36359;41.556;-8.418;2023-02-17T18:36:50;101048.47;;;17.51;34.70
50430;BME280;36359;41.556;-8.418;2023-02-17T18:39:16;101061.63;;;17.56;34.47
50430;BME280;36359;41.556;-8.418;2023-02-17T18:41:42;101063.38;;;17.57;32.89
50430;BME280;36359;41.556;-8.418;2023-02-17T18:44:08;101066.63;;;17.52;37.07
50430;BME280;36359;41.556;-8.418;2023-02-17T18:46:35;101068.19;;;17.46;33.93
50430;BME280;36359;41.556;-8.418;2023-02-17T18:49:03;101072.34;;;17.42;41.53
50430;BME280;36359;41.556;-8.418;2023-02-17T18:51:29;101078.53;;;17.28;37.66
50430;BME280;36359;41.556;-8.418;2023-02-17T18:53:57;101076.16;;;17.25;40.57
50430;BME280;36359;41.556;-8.418;2023-02-17T18:56:26;101075.09;;;17.26;38.60
50430;BME280;36359;41.556;-8.418;2023-02-17T18:58:52;101081.13;;;17.21;36.37
50430;BME280;36359;41.556;-8.418;2023-02-17T19:01:25;101072.38;;;17.26;34.53
50430;BME280;36359;41.556;-8.418;2023-02-17T19:03:51;101074.44;;;17.24;38.10
50430;BME280;36359;41.556;-8.418;2023-02-17T19:06:20;101073.06;;;17.20;40.83
50430;BME280;36359;41.556;-8.418;2023-02-17T19:08:47;101083.03;;;17.21;32.99
50430;BME280;36359;41.556;-8.418;2023-02-17T19:11:14;101084.03;;;17.20;39.00
50430;BME280;36359;41.556;-8.418;2023-02-17T19:13:40;101091.06;;;17.14;41.34
50430;BME280;36359;41.556;-8.418;2023-02-17T19:16:08;101094.19;;;17.03;35.57
50430;BME280;36359;41.556;-8.418;2023-02-17T19:18:36;101101.38;;;16.96;34.18
50430;BME280;36359;41.556;-8.418;2023-02-17T19:21:02;101111.34;;;16.89;34.81
50430;BME280;36359;41.556;-8.418;2023-02-17T19:23:27;101113.38;;;16.78;34.85
50430;BME280;36359;41.556;-8.418;2023-02-17T19:25:53;101118.66;;;16.72;35.12
50430;BME280;36359;41.556;-8.418;2023-02-17T19:28:19;101118.16;;;16.60;34.00
50430;BME280;36359;41.556;-8.418;2023-02-17T19:30:45;101118.84;;;16.62;34.29
50430;BME280;36359;41.556;-8.418;2023-02-17T19:33:11;101122.44;;;16.71;33.61
50430;BME280;36359;41.556;-8.418;2023-02-17T19:35:41;101125.84;;;16.73;34.56
50430;BME280;36359;41.556;-8.418;2023-02-17T19:38:06;101129.28;;;16.75;35.62
50430;BME280;36359;41.556;-8.418;2023-02-17T19:40:33;101123.31;;;16.71;34.45
50430;BME280;36359;41.556;-8.418;2023-02-17T19:42:59;101126.25;;;16.78;34.36
50430;BME280;36359;41.556;-8.418;2023-02-17T19:45:26;101129.28;;;16.75;36.66
50430;BME280;36359;41.556;-8.418;2023-02-17T19:47:52;101125.19;;;16.63;36.69
50430;BME280;36359;41.556;-8.418;2023-02-17T19:50:18;101138.69;;;16.64;36.00
50430;BME280;36359;41.556;-8.418;2023-02-17T19:52:44;101133.75;;;16.68;38.65
50430;BME280;36359;41.556;-8.418;2023-02-17T19:55:09;101132.88;;;16.67;39.31
50430;BME280;36359;41.556;-8.418;2023-02-17T19:57:35;101139.22;;;16.68;35.19
50430;BME280;36359;41.556;-8.418;2023-02-17T20:00:02;101137.50;;;16.67;39.88
50430;BME280;36359;41.556;-8.418;2023-02-17T20:02:30;101145.69;;;16.58;37.41
50430;BME280;36359;41.556;-8.418;2023-02-17T20:04:56;101146.94;;;16.56;40.00
50430;BME280;36359;41.556;-8.418;2023-02-17T20:07:22;101144.31;;;16.46;37.90
50430;BME280;36359;41.556;-8.418;2023-02-17T20:09:48;101143.81;;;16.43;37.69
50430;BME280;36359;41.556;-8.418;2023-02-17T20:12:14;101149.28;;;16.43;36.59
50430;BME280;36359;41.556;-8.418;2023-02-17T20:14:39;101153.53;;;16.29;36.87
50430;BME280;36359;41.556;-8.418;2023-02-17T20:17:06;101155.41;;;16.28;35.19
50430;BME280;36359;41.556;-8.418;2023-02-17T20:19:35;101155.25;;;16.30;38.06
50430;BME280;36359;41.556;-8.418;2023-02-17T20:22:02;101158.97;;;16.12;36.11
50430;BME280;36359;41.556;-8.418;2023-02-17T20:24:28;101153.38;;;15.88;37.28
50430;BME280;36359;41.556;-8.418;2023-02-17T20:26:53;101157.34;;;15.59;38.35
50430;BME280;36359;41.556;-8.418;2023-02-17T20:29:19;101165.53;;;15.59;39.63
50430;BME280;36359;41.556;-8.418;2023-02-17T20:31:45;101162.63;;;15.61;40.71
50430;BME280;36359;41.556;-8.418;2023-02-17T20:36:46;101169.06;;;15.52;38.46
50430;BME280;36359;41.556;-8.418;2023-02-17T20:39:11;101163.72;;;15.42;40.62
50430;BME280;36359;41.556;-8.418;2023-02-17T20:41:38;101167.31;;;15.42;40.31
50430;BME280;36359;41.556;-8.418;2023-02-17T20:44:04;101171.22;;;15.40;40.37
50430;BME280;36359;41.556;-8.418;2023-02-17T20:46:30;101170.81;;;15.27;40.61
50430;BME280;36359;41.556;-8.418;2023-02-17T20:48:56;101173.47;;;15.18;40.36
50430;BME280;36359;41.556;-8.418;2023-02-17T20:51:22;101179.88;;;15.09;41.01
50430;BME280;36359;41.556;-8.418;2023-02-17T20:53:48;101181.06;;;15.07;40.83
50430;BME280;36359;41.556;-8.418;2023-02-17T20:58:46;101183.81;;;14.89;41.08
50430;BME280;36359;41.556;-8.418;2023-02-17T21:01:12;101185.13;;;14.85;40.83
50430;BME280;36359;41.556;-8.418;2023-02-17T21:03:39;101185.63;;;14.80;41.40
50430;BME280;36359;41.556;-8.418;2023-02-17T21:06:34;101187.09;;;14.74;41.38
50430;BME280;36359;41.556;-8.418;2023-02-17T21:09:01;101187.41;;;14.71;41.81
50430;BME280;36359;41.556;-8.418;2023-02-17T21:11:27;101181.41;;;14.68;41.90
50430;BME280;36359;41.556;-8.418;2023-02-17T21:13:54;101185.63;;;14.35;42.18
50430;BME280;36359;41.556;-8.418;2023-02-17T21:16:22;101182.25;;;14.41;41.95
50430;BME280;36359;41.556;-8.418;2023-02-17T21:18:48;101177.72;;;14.31;42.55
50430;BME280;36359;41.556;-8.418;2023-02-17T21:21:14;101187.09;;;14.29;42.29
50430;BME280;36359;41.556;-8.418;2023-02-17T21:23:40;101183.59;;;14.37;41.74
50430;BME280;36359;41.556;-8.418;2023-02-17T21:26:07;101181.66;;;14.47;41.93
50430;BME280;36359;41.556;-8.418;2023-02-17T21:28:33;101181.00;;;14.35;42.16
50430;BME280;36359;41.556;-8.418;2023-02-17T21:30:59;101192.44;;;14.48;42.89
50430;BME280;36359;41.556;-8.418;2023-02-17T21:33:25;101198.88;;;14.57;44.00
50430;BME280;36359;41.556;-8.418;2023-02-17T21:35:54;101195.59;;;14.53;41.99
50430;BME280;36359;41.556;-8.418;2023-02-17T21:38:20;101192.69;;;14.55;40.96
50430;BME280;36359;41.556;-8.418;2023-02-17T21:40:48;101200.44;;;14.60;42.04
50430;BME280;36359;41.556;-8.418;2023-02-17T21:43:15;101204.03;;;14.60;41.39
50430;BME280;36359;41.556;-8.418;2023-02-17T21:46:00;101211.28;;;14.69;41.82
50430;BME280;36359;41.556;-8.418;2023-02-17T21:48:30;101211.38;;;14.50;40.41
50430;BME280;36359;41.556;-8.418;2023-02-17T21:51:06;101202.31;;;14.59;40.82
50430;BME280;36359;41.556;-8.418;2023-02-17T21:53:33;101204.88;;;14.79;40.49
50430;BME280;36359;41.556;-8.418;2023-02-17T21:55:59;101218.22;;;14.82;39.45
50430;BME280;36359;41.556;-8.418;2023-02-17T21:58:25;101216.59;;;14.89;39.44
50430;BME280;36359;41.556;-8.418;2023-02-17T22:00:51;101218.47;;;14.88;39.21
50430;BME280;36359;41.556;-8.418;2023-02-17T22:03:17;101215.97;;;14.77;39.43
50430;BME280;36359;41.556;-8.418;2023-02-17T22:05:42;101220.41;;;14.78;40.97
50430;BME280;36359;41.556;-8.418;2023-02-17T22:08:08;101218.09;;;14.65;40.62
50430;BME280;36359;41.556;-8.418;2023-02-17T22:10:38;101216.91;;;14.86;47.05
50430;BME280;36359;41.556;-8.418;2023-02-17T22:13:04;101224.94;;;14.69;42.05
50430;BME280;36359;41.556;-8.418;2023-02-17T22:15:31;101223.44;;;14.57;41.75
50430;BME280;36359;41.556;-8.418;2023-02-17T22:17:57;101224.97;;;14.42;41.64
50430;BME280;36359;41.556;-8.418;2023-02-17T22:20:23;101223.66;;;14.18;41.79
50430;BME280;36359;41.556;-8.418;2023-02-17T22:22:49;101229.34;;;13.97;42.93
50430;BME280;36359;41.556;-8.418;2023-02-17T22:25:15;101231.50;;;13.94;44.44
50430;BME280;36359;41.556;-8.418;2023-02-17T22:27:41;101236.34;;;14.00;43.78
50430;BME280;36359;41.556;-8.418;2023-02-17T22:30:07;101228.69;;;13.85;43.10
50430;BME280;36359;41.556;-8.418;2023-02-17T22:32:33;101223.97;;;14.05;49.78
50430;BME280;36359;41.556;-8.418;2023-02-17T22:34:59;101222.16;;;14.06;44.77
50430;BME280;36359;41.556;-8.418;2023-02-17T22:37:25;101228.78;;;13.94;46.91
50430;BME280;36359;41.556;-8.418;2023-02-17T22:39:52;101227.72;;;14.04;45.06
50430;BME280;36359;41.556;-8.418;2023-02-17T22:42:18;101224.88;;;13.96;44.53
50430;BME280;36359;41.556;-8.418;2023-02-17T22:44:44;101216.44;;;13.90;44.78
50430;BME280;36359;41.556;-8.418;2023-02-17T22:47:10;101213.78;;;13.80;49.09
50430;BME280;36359;41.556;-8.418;2023-02-17T22:49:36;101217.66;;;13.77;47.68
50430;BME280;36359;41.556;-8.418;2023-02-17T22:52:02;101211.25;;;13.59;44.76
50430;BME280;36359;41.556;-8.418;2023-02-17T22:54:29;101213.81;;;13.60;46.72
50430;BME280;36359;41.556;-8.418;2023-02-17T22:56:55;101214.16;;;13.48;45.70
50430;BME280;36359;41.556;-8.418;2023-02-17T22:59:20;101212.38;;;13.66;45.95
50430;BME280;36359;41.556;-8.418;2023-02-17T23:01:46;101214.44;;;13.45;44.81
50430;BME280;36359;41.556;-8.418;2023-02-17T23:04:15;101211.25;;;13.59;46.52
50430;BME280;36359;41.556;-8.418;2023-02-17T23:06:42;101202.09;;;13.50;45.13
50430;BME280;36359;41.556;-8.418;2023-02-17T23:09:11;101202.28;;;13.76;47.67
50430;BME280;36359;41.556;-8.418;2023-02-17T23:11:39;101202.50;;;13.55;45.86
50430;BME280;36359;41.556;-8.418;2023-02-17T23:14:32;101207.56;;;13.40;45.52
50430;BME280;36359;41.556;-8.418;2023-02-17T23:17:00;101207.25;;;13.53;46.73
50430;BME280;36359;41.556;-8.418;2023-02-17T23:19:26;101202.41;;;13.47;46.26
50430;BME280;36359;41.556;-8.418;2023-02-17T23:21:55;101207.38;;;13.52;45.38
50430;BME280;36359;41.556;-8.418;2023-02-17T23:24:23;101204.44;;;13.16;44.70
50430;BME280;36359;41.556;-8.418;2023-02-17T23:26:52;101202.13;;;13.11;45.87
50430;BME280;36359;41.556;-8.418;2023-02-17T23:29:18;101210.16;;;13.23;46.21
50430;BME280;36359;41.556;-8.418;2023-02-17T23:31:44;101201.25;;;13.21;47.33
50430;BME280;36359;41.556;-8.418;2023-02-17T23:34:11;101206.03;;;13.09;46.58
50430;BME280;36359;41.556;-8.418;2023-02-17T23:36:42;101203.56;;;13.15;48.69
50430;BME280;36359;41.556;-8.418;2023-02-17T23:39:08;101198.13;;;12.96;46.08
50430;BME280;36359;41.556;-8.418;2023-02-17T23:41:35;101186.38;;;12.86;46.47
50430;BME280;36359;41.556;-8.418;2023-02-17T23:44:02;101189.53;;;13.01;44.93
50430;BME280;36359;41.556;-8.418;2023-02-17T23:46:28;101193.25;;;13.00;44.16
50430;BME280;36359;41.556;-8.418;2023-02-17T23:48:54;101194.69;;;13.04;43.83
50430;BME280;36359;41.556;-8.418;2023-02-17T23:51:20;101187.09;;;13.07;44.30
50430;BME280;36359;41.556;-8.418;2023-02-17T23:53:46;101190.38;;;13.11;43.99
50430;BME280;36359;41.556;-8.418;2023-02-17T23:56:21;101189.66;;;13.18;43.76
50430;BME280;36359;41.556;-8.418;2023-02-17T23:58:48;101192.66;;;13.15;44.06
